Tiempo atmosférico en la estación meteorológica de Gaucín, Málaga (545 m.)



Fecha
DESCASC
Temp. máxima en grados centígrados (hora)
DESCASC
Temp. mínima en grados centígrados (hora)
DESCASC
Temp. media en grados centígrados
DESCASC
Racha de viento máxima en m/sg (hora)
DESCASC
Velocidad máxima media en intervalos de 10 minutos(hora)
DESCASC
Precipitaciones diarias en mm
DESCASC
Precipitaciones de 00:00 a 06:00 en mm
DESCASC
Precipitaciones de 06:00 a 12:00 en mm
DESCASC
Precipitaciones de 12:00 a 18:00 en mm
DESCASC
Precipitaciones de 18:00 a 24:00 en mm
DESCASC
18-10-2018 15.6 (15:10) 9.2 (16:00) 12.4 12.78 (15:40) 5.83 (15:40) 32.4 0.2 15.2 16 1
17-10-2018 22.5 (15:40) 10.5 (07:10) 16.5 6.94 (16:50) 4.17 (15:00) 0 0 0 0 0
16-10-2018 19.4 (13:10) 12 (08:00) 15.7 6.67 (18:30) 3.06 (18:30) 0.4 0.2 0 0.2 0
15-10-2018 17.5 (15:30) 9.9 (05:20) 13.7 11.94 (15:40) 6.11 (16:00) 14.8 0 0 0 14.8
14-10-2018 16.6 (00:00) 12.1 (00:00) 14.4 12.22 (15:30) 4.72 (10:40) 6 0 6 0 0
13-10-2018 23.7 (14:20) 16.1 (00:00) 19.9 7.5 (14:40) 4.72 (16:00) 0 0 0 0 0
12-10-2018 24.2 (15:10) 13.7 (00:00) 19 6.94 (14:10) 3.61 (14:50) 0 0 0 0 0
11-10-2018 21 (18:00) 16.1 (09:50) 18.6 9.72 (13:20) 5.83 (14:20) 16.8 0 16.8 0 0
10-10-2018 20.2 (18:00) 14.3 (00:00) 17.3 8.89 (02:20) 3.06 (15:10) 16.8 16.8 0 0 0
09-10-2018 22.9 (14:30) 15 (05:40) 18.9 8.33 (23:50) 4.72 (23:40) 6 0 0 0 6
08-10-2018 24.1 (14:20) 15.5 (04:00) 19.8 9.17 (15:10) 4.44 (16:50) 0 0 0 0 0
07-10-2018 28.7 (15:40) 14.7 (08:10) 21.7 8.33 (22:50) 4.44 (22:50) 0 0 0 0 0
06-10-2018 24.5 (15:00) 15.8 (07:40) 20.2 8.61 (15:50) 5.28 (15:30) 0 0 0 0 0
05-10-2018 25.6 (17:10) 16.8 (09:10) 21.2 6.39 (14:00) 3.89 (13:50) 0 0 0 0 0
04-10-2018 26.7 (16:10) 17.3 (00:00) 22 8.89 (13:30) 5 (14:20) 0 0 0 0 0
03-10-2018 25.1 (17:40) 15.9 (00:00) 20.5 6.39 (14:00) 2.78 (13:40) 0 0 0 0 0
02-10-2018 -- (--) -- (--) -- -- (--) -- (--) -- 0 -- -- --
01-10-2018 29.2 (14:30) 16.8 (00:00) 23 8.33 (16:00) 3.89 (06:00) 0 0 0 0 0
30-09-2018 23.2 (13:30) 15.1 (00:00) 19.2 9.17 (14:10) 5 (14:00) 0 0 0 0 0
29-09-2018 24.7 (17:40) 16.7 (00:00) 20.7 8.06 (14:50) 5.56 (14:50) 0 0 0 0 0
28-09-2018 24.6 (16:50) 16.9 (00:00) 20.8 7.5 (01:30) 2.78 (01:20) 0 0 0 0 0
27-09-2018 22.2 (12:50) 18.9 (00:00) 20.6 10.83 (13:10) 3.61 (11:40) 0 0 0 0 0
26-09-2018 25.1 (14:50) 19.8 (00:00) 22.4 10.56 (23:30) 3.61 (22:00) 0 0 0 0 0
25-09-2018 28.3 (15:40) 20.7 (00:00) 24.5 7.5 (02:00) 3.06 (02:10) 0 0 0 0 0
24-09-2018 32 (16:40) 22 (00:00) 27 7.78 (03:20) 4.17 (15:50) 0 0 0 0 0
23-09-2018 31.5 (17:00) 20.7 (01:50) 26.1 6.94 (15:20) 2.78 (15:30) 0 0 0 0 0
22-09-2018 30.3 (16:00) 19.7 (03:50) 25 8.89 (16:40) 2.78 (13:40) 0 0 0 0 0
21-09-2018 27.6 (17:10) 16.9 (07:30) 22.3 7.22 (15:30) 4.44 (15:10) 0 0 0 0 0
20-09-2018 26.9 (14:00) 18.8 (04:40) 22.8 6.39 (13:30) 3.61 (15:40) 0 0 0 0 0

Gráficas

Temp. máximas Temp. mínimas Temp. medias Precipitaciones Rachas de viento máximas Velocidades máximas media en intervalos de 10 minutos

Datos horarios

Fecha y hora oficial Temperatura (ºC) Velocidad del viento (km/h) Dirección del viento Racha (km/h) Dirección de racha Precipitación (mm) Presión (hPa) Tendencia (hPa) Humedad (%)
2018-10-19 23:00:00 11.2 3 Noroeste 9 Oeste 0 -- -- 84
2018-10-19 22:00:00 11.8 4 Sudoeste 14 Norte 0.2 -- -- 88
2018-10-19 21:00:00 11.8 3 Norte 9 Norte 2 -- -- 90
2018-10-19 20:00:00 12 3 Noroeste 22 Sudeste 3.6 -- -- 89
2018-10-19 19:00:00 13.6 7 Sudoeste 17 Sur 0 -- -- 75
2018-10-19 18:00:00 14.5 4 Oeste 13 Oeste 0 -- -- 71
2018-10-19 17:00:00 14.5 4 Oeste 14 Sudeste 0 -- -- 70
2018-10-19 16:00:00 14.8 5 Sur 28 Sudeste 0 -- -- 69
2018-10-19 15:00:00 15.2 6 Oeste 24 Norte 0 -- -- 69
2018-10-19 14:00:00 16.3 8 Sudoeste 22 Sudoeste 0 -- -- 70
2018-10-19 13:00:00 12.9 6 Sudoeste 17 Sudeste 0 -- -- 82
2018-10-19 12:00:00 12.5 4 Oeste 9 Oeste 0 -- -- 83
2018-10-19 11:00:00 10.5 0 Calma 9 Nordeste 0 -- -- 93
2018-10-19 10:00:00 9.1 9 Nordeste 13 Norte 0 -- -- 91
2018-10-19 09:00:00 8.2 8 Nordeste 14 Norte 0 -- -- 92
2018-10-19 08:00:00 9.1 6 Norte 12 Nordeste 0 -- -- 88
2018-10-19 07:00:00 8.1 10 Nordeste 14 Nordeste 0 -- -- 92
2018-10-19 06:00:00 8.5 9 Nordeste 13 Nordeste 0 -- -- 92
2018-10-19 05:00:00 8.6 11 Nordeste 12 Nordeste 0 -- -- 91
2018-10-19 04:00:00 8.6 10 Nordeste 13 Nordeste 0 -- -- 92
2018-10-19 03:00:00 9.6 7 Nordeste 11 Nordeste 0 -- -- 87
2018-10-19 02:00:00 9.5 9 Nordeste 11 Nordeste 0 -- -- 89
2018-10-19 01:00:00 9.9 0 Calma 10 Nordeste 0 -- -- 89
2018-10-19 00:00:00 9.7 7 Nordeste 10 Norte 0 -- -- 91
2018-10-18 23:00:00 10.3 4 Este 8 Este 0 -- -- 88
2018-10-18 22:00:00 10.4 5 Este 12 Este 0 -- -- 91
2018-10-18 21:00:00 10.2 0 Calma 7 Sudeste 0 -- -- 91
2018-10-18 20:00:00 10.6 0 Calma 5 Nordeste 0 -- -- 91
2018-10-18 19:00:00 11.4 3 Oeste 9 Sudoeste 1 -- -- 92
2018-10-18 18:00:00 11.8 2 Este 11 Nordeste 0 -- -- 86
2018-10-18 17:00:00 10.2 10 Nordeste 16 Nordeste 1.2 -- -- 90
2018-10-18 16:00:00 9.2 8 Sudoeste 46 Sudoeste 14.4 -- -- 91
2018-10-18 15:00:00 14.7 6 Sudoeste 16 Sudoeste 0 -- -- 80
2018-10-18 14:00:00 13.2 4 Sudeste 9 Sur 0 -- -- 85
2018-10-18 13:00:00 12.8 3 Sudoeste 13 Sudoeste 0.4 -- -- 89
2018-10-18 12:00:00 10.9 0 Calma 11 Norte 0 -- -- 92
2018-10-18 11:00:00 10.2 3 Sur 23 Norte 0.6 -- -- 89
2018-10-18 10:00:00 10.7 12 Nordeste 25 Oeste 8.4 -- -- 94
2018-10-18 09:00:00 11.9 6 Sudoeste 11 Sudoeste 2.2 -- -- 93
2018-10-18 08:00:00 12.3 8 Sudoeste 26 Sur 3.8 -- -- 91
2018-10-18 07:00:00 13.9 9 Sudoeste 16 Sur 0.2 -- -- 94
2018-10-18 06:00:00 14.2 2 Sudoeste 10 Este 0.2 -- -- 91
2018-10-18 05:00:00 14.3 3 Este 6 Sudoeste 0 -- -- 89
2018-10-18 04:00:00 14.2 2 Sur 15 Sur 0 -- -- 88
2018-10-18 03:00:00 14.1 0 Calma 8 Sudeste 0 -- -- 85
2018-10-18 02:00:00 14.7 2 Sur 6 Sur 0 -- -- 82
2018-10-18 01:00:00 15.3 2 Nordeste 10 Norte 0 -- -- 74
2018-10-18 00:00:00 15.3 7 Norte 13 Norte 0 -- -- 79
2018-10-17 23:00:00 15.8 10 Norte 21 Norte 0 -- -- 78
2018-10-17 22:00:00 16.1 10 Norte 22 Norte 0 -- -- 78
2018-10-17 21:00:00 16.5 2 Nordeste 15 Oeste 0 -- -- 77
2018-10-17 20:00:00 18 8 Sudoeste 18 Oeste 0 -- -- 72
2018-10-17 19:00:00 19.2 8 Sudoeste 20 Sudoeste 0 -- -- 69
2018-10-17 18:00:00 19.3 4 Sudoeste 18 Sudoeste 0 -- -- 67
2018-10-17 17:00:00 21.1 12 Sudoeste 25 Sudoeste 0 -- -- 62
2018-10-17 16:00:00 21.4 10 Sudoeste 22 Sudoeste 0 -- -- 54
2018-10-17 15:00:00 21.8 15 Sudoeste 24 Sudoeste 0 -- -- 56
2018-10-17 14:00:00 21.3 11 Sudoeste 18 Sur 0 -- -- 59
2018-10-17 13:00:00 20.5 8 Sudoeste 14 Sudoeste 0 -- -- 58
2018-10-17 12:00:00 19.4 2 Nordeste 9 Nordeste 0 -- -- 63
2018-10-17 11:00:00 16 6 Nordeste 15 Nordeste 0 -- -- 79
2018-10-17 10:00:00 11.5 13 Nordeste 15 Nordeste 0 -- -- 93
2018-10-17 09:00:00 11.4 12 Nordeste 15 Nordeste 0 -- -- 92
2018-10-17 08:00:00 10.7 10 Norte 15 Norte 0 -- -- 95
2018-10-17 07:00:00 10.6 10 Nordeste 15 Norte 0 -- -- 95
2018-10-17 06:00:00 11 8 Nordeste 13 Nordeste 0 -- -- 94
2018-10-17 05:00:00 11.8 5 Norte 12 Norte 0 -- -- 91
2018-10-17 04:00:00 12.5 3 Nordeste 10 Nordeste 0 -- -- 90
2018-10-17 03:00:00 12.7 3 Nordeste 10 Nordeste 0 -- -- 89
2018-10-17 02:00:00 12.7 2 Nordeste 13 Norte 0 -- -- 89
2018-10-17 01:00:00 13.4 2 Norte 11 Nordeste 0 -- -- 86
2018-10-17 00:00:00 13.8 8 Nordeste 11 Norte 0 -- -- 85
2018-10-16 23:00:00 14.3 6 Nordeste 13 Norte 0 -- -- 82
2018-10-16 22:00:00 14.8 5 Nordeste 10 Norte 0 -- -- 80
2018-10-16 21:00:00 15.4 5 Nordeste 8 Norte 0 -- -- 80
2018-10-16 20:00:00 16.8 4 Nordeste 15 Norte 0 -- -- 75
2018-10-16 19:00:00 18 8 Norte 24 Norte 0 -- -- 71
2018-10-16 18:00:00 17.5 9 Norte 19 Norte 0 -- -- 74
2018-10-16 17:00:00 17.7 4 Norte 15 Nordeste 0 -- -- 73
2018-10-16 16:00:00 18.1 4 Noroeste 10 Noroeste 0 -- -- 73
2018-10-16 15:00:00 18.2 3 Sudoeste 9 Sudoeste 0 -- -- 75
2018-10-16 14:00:00 19 4 Sudoeste 10 Nordeste 0 -- -- 68
2018-10-16 13:00:00 19.1 5 Noroeste 16 Oeste 0.2 -- -- 65
2018-10-16 12:00:00 17.5 7 Norte 14 Noroeste 0 -- -- 73
2018-10-16 11:00:00 15.9 3 Nordeste 12 Nordeste 0 -- -- 83
2018-10-16 10:00:00 12.6 4 Nordeste 9 Norte 0 -- -- 94
2018-10-16 09:00:00 12.2 5 Nordeste 14 Nordeste 0 -- -- 94
2018-10-16 08:00:00 12 8 Nordeste 18 Norte 0 -- -- 94
2018-10-16 07:00:00 13.1 7 Norte 20 Norte 0 -- -- 89
2018-10-16 06:00:00 13 3 Nordeste 15 Nordeste 0 -- -- 92
2018-10-16 05:00:00 13.3 8 Norte 22 Nordeste 0 -- -- 92
2018-10-16 04:00:00 13.3 7 Norte 21 Norte 0 -- -- 92
2018-10-16 03:00:00 13.6 4 Oeste 19 Noroeste 0 -- -- 93
2018-10-16 02:00:00 13.5 5 Norte 15 Nordeste 0 -- -- 95
2018-10-16 01:00:00 13.6 4 Norte 15 Norte 0.2 -- -- 95
2018-10-16 00:00:00 13.9 2 Sudoeste 13 Norte 0.2 -- -- 96
2018-10-15 23:00:00 14 5 Oeste 26 Oeste 2.6 -- -- 96
2018-10-15 22:00:00 13.3 6 Sudoeste 24 Sudoeste 7.6 -- -- 96
2018-10-15 21:00:00 13.1 14 Sudoeste 30 Sur 2.8 -- -- 95
2018-10-15 20:00:00 13 12 Sur 24 Sur 0.8 -- -- 94
2018-10-15 19:00:00 13.6 8 Sudoeste 34 Sur 0.8 -- -- 90
2018-10-15 18:00:00 14.5 18 Sudoeste 39 Sudoeste 0 -- -- 79
2018-10-15 17:00:00 15.9 19 Sudoeste 36 Sudoeste 0 -- -- 69
2018-10-15 16:00:00 16.9 22 Sudoeste 43 Sudoeste 0 -- -- 63
2018-10-15 15:00:00 16.4 13 Sudoeste 26 Sudoeste 0 -- -- 59
2018-10-15 14:00:00 15.5 8 Noroeste 25 Noroeste 0 -- -- 62
2018-10-15 13:00:00 15.1 7 Oeste 20 Norte 0 -- -- 60
2018-10-15 12:00:00 14.1 7 Oeste 23 Oeste 0 -- -- 59
2018-10-15 11:00:00 13.3 6 Noroeste 30 Norte 0 -- -- 57
2018-10-15 10:00:00 11.1 11 Norte 29 Norte 0 -- -- 66
2018-10-15 09:00:00 10.5 7 Norte 24 Norte 0 -- -- 69
2018-10-15 08:00:00 10.6 6 Nordeste 18 Nordeste 0 -- -- 68
2018-10-15 07:00:00 10.5 6 Norte 14 Nordeste 0 -- -- 71
2018-10-15 06:00:00 10.1 4 Este 11 Norte 0 -- -- 75
2018-10-15 05:00:00 10.1 4 Nordeste 13 Norte 0 -- -- 77
2018-10-15 04:00:00 11 6 Norte 20 Noroeste 0 -- -- 73
2018-10-15 03:00:00 11 5 Nordeste 19 Noroeste 0 -- -- 74
2018-10-15 02:00:00 11.4 4 Noroeste 19 Noroeste 0 -- -- 72
2018-10-15 01:00:00 11.9 6 Nordeste 23 Oeste 0 -- -- 69
2018-10-15 00:00:00 12.1 6 Norte 21 Este 0 -- -- 68
2018-10-14 23:00:00 12.5 8 Norte 27 Norte 0 -- -- 66
2018-10-14 22:00:00 12.8 8 Norte 32 Norte 0 -- -- 66
2018-10-14 21:00:00 13.4 9 Norte 31 Norte 0 -- -- 64
2018-10-14 20:00:00 14 15 Norte 30 Norte 0 -- -- 60
2018-10-14 19:00:00 15.2 14 Norte 36 Norte 0 -- -- 54
2018-10-14 18:00:00 16 12 Noroeste 35 Noroeste 0 -- -- 52
2018-10-14 17:00:00 15.9 12 Norte 41 Noroeste 0 -- -- 58
2018-10-14 16:00:00 15.3 13 Norte 44 Noroeste 0 -- -- 62
2018-10-14 15:00:00 16 13 Norte 37 Noroeste 0 -- -- 64
2018-10-14 14:00:00 16.4 10 Sudoeste 40 Noroeste 0 -- -- 67
2018-10-14 13:00:00 15.6 10 Noroeste 29 Norte 0 -- -- 72
2018-10-14 12:00:00 14.4 13 Norte 35 Norte 0 -- -- 79
2018-10-14 11:00:00 12.9 17 Norte 39 Noroeste 0.6 -- -- 89
2018-10-14 10:00:00 13.6 11 Noroeste 34 Noroeste 2.4 -- -- 93
2018-10-14 09:00:00 14.4 13 Norte 34 Noroeste 0.8 -- -- 95
2018-10-14 08:00:00 16.6 11 Sudoeste 21 Sur 2.2 -- -- 96
2018-10-14 07:00:00 16.4 13 Sudoeste 20 Sudoeste 0 -- -- 96
2018-10-14 06:00:00 16.3 5 Sur 21 Sudoeste 0 -- -- 96
2018-10-14 05:00:00 16 5 Sudoeste 10 Sudoeste 0 -- -- 95
2018-10-14 04:00:00 15.6 3 Nordeste 9 Nordeste 0 -- -- 95
2018-10-14 03:00:00 15.9 2 Sur 6 Este 0 -- -- 94
2018-10-14 02:00:00 16 2 Nordeste 6 Sur 0 -- -- 94
2018-10-14 01:00:00 16 3 Sur 10 Norte 0 -- -- 94
2018-10-14 00:00:00 16.6 5 Nordeste 8 Norte 0 -- -- 92
2018-10-13 23:00:00 16.9 0 Calma 4 Sudoeste 0 -- -- 91
2018-10-13 22:00:00 17.4 2 Este 6 Este 0 -- -- 92
2018-10-13 21:00:00 17.9 0 Calma 4 Norte 0 -- -- 90
2018-10-13 20:00:00 19.1 3 Nordeste 10 Sur 0 -- -- 86
2018-10-13 19:00:00 21.2 6 Sudoeste 15 Sudoeste 0 -- -- 79
2018-10-13 18:00:00 22.1 10 Sudoeste 19 Sudoeste 0 -- -- 78
2018-10-13 17:00:00 23.5 14 Sudoeste 23 Sudoeste 0 -- -- 71
2018-10-13 16:00:00 23.3 17 Sudoeste 23 Sudoeste 0 -- -- 71
2018-10-13 15:00:00 23 14 Sudoeste 27 Sudoeste 0 -- -- 68
2018-10-13 14:00:00 23.4 10 Sudoeste 20 Sudoeste 0 -- -- 63
2018-10-13 13:00:00 22.8 9 Sudoeste 17 Sur 0 -- -- 63
2018-10-13 12:00:00 22 6 Sudoeste 13 Sudoeste 0 -- -- 61
2018-10-13 11:00:00 21.3 3 Sur 8 Sudoeste 0 -- -- 61
2018-10-13 10:00:00 18 3 Sudoeste 12 Nordeste 0 -- -- 69
2018-10-13 09:00:00 17.8 6 Este 12 Este 0 -- -- 65
2018-10-13 08:00:00 16.9 3 Norte 8 Nordeste 0 -- -- 70
2018-10-13 07:00:00 16.8 2 Nordeste 10 Nordeste 0 -- -- 67
2018-10-13 06:00:00 16.5 2 Este 6 Este 0 -- -- 73
2018-10-13 05:00:00 16.2 3 Este 6 Este 0 -- -- 81
2018-10-13 04:00:00 16.4 0 Calma 3 Sudeste 0 -- -- 83
2018-10-13 03:00:00 16.7 2 Sudeste 6 Este 0 -- -- 83
2018-10-13 02:00:00 17.3 2 Este 8 Este 0 -- -- 83
2018-10-13 01:00:00 16.7 3 Nordeste 7 Nordeste 0 -- -- 90
2018-10-13 00:00:00 17 0 Calma 9 Nordeste 0 -- -- 89
2018-10-12 23:00:00 18.4 7 Nordeste 9 Nordeste 0 -- -- 80
2018-10-12 22:00:00 18.4 3 Nordeste 10 Norte 0 -- -- 81
2018-10-12 21:00:00 19 8 Nordeste 9 Norte 0 -- -- 78
2018-10-12 20:00:00 20.4 0 Calma 8 Sudoeste 0 -- -- 73
2018-10-12 19:00:00 23 4 Sudoeste 14 Sudoeste 0 -- -- 64
2018-10-12 18:00:00 23.7 9 Sudoeste 15 Sudoeste 0 -- -- 62
2018-10-12 17:00:00 24.1 11 Sudoeste 19 Sudoeste 0 -- -- 58
2018-10-12 16:00:00 24 11 Sudoeste 24 Sudoeste 0 -- -- 61
2018-10-12 15:00:00 24 9 Sudoeste 25 Sudoeste 0 -- -- 60
2018-10-12 14:00:00 23.7 8 Sudoeste 19 Sur 0 -- -- 60
2018-10-12 13:00:00 23 6 Sudoeste 13 Sudoeste 0 -- -- 60
2018-10-12 12:00:00 21.4 4 Sudoeste 8 Sudoeste 0 -- -- 66
2018-10-12 11:00:00 19.2 2 Este 11 Nordeste 0 -- -- 75
2018-10-12 10:00:00 14.7 5 Nordeste 13 Nordeste 0 -- -- 91
2018-10-12 09:00:00 13.8 10 Nordeste 13 Norte 0 -- -- 92
2018-10-12 08:00:00 14 11 Nordeste 15 Nordeste 0 -- -- 93
2018-10-12 07:00:00 14.5 10 Nordeste 13 Nordeste 0 -- -- 91
2018-10-12 06:00:00 14 9 Nordeste 14 Norte 0 -- -- 94
2018-10-12 05:00:00 14.8 6 Nordeste 14 Norte 0 -- -- 94
2018-10-12 04:00:00 14.8 11 Norte 15 Norte 0 -- -- 93
2018-10-12 03:00:00 15.2 8 Norte 13 Norte 0 -- -- 92
2018-10-12 02:00:00 15.9 3 Norte 13 Norte 0 -- -- 90
2018-10-12 01:00:00 15.7 6 Nordeste 15 Norte 0 -- -- 91
2018-10-12 00:00:00 16.3 4 Nordeste 10 Nordeste 0 -- -- 87
2018-10-11 23:00:00 16.2 4 Nordeste 11 Nordeste 0 -- -- 89
2018-10-11 22:00:00 16.8 3 Nordeste 14 Oeste 0 -- -- 86
2018-10-11 21:00:00 17.3 6 Oeste 23 Sudoeste 0 -- -- 84
2018-10-11 20:00:00 18 10 Sudoeste 28 Sudoeste 0 -- -- 82
2018-10-11 19:00:00 19.3 14 Sudoeste 29 Sur 0 -- -- 73
2018-10-11 18:00:00 21 15 Sudoeste 26 Sudoeste 0 -- -- 66
2018-10-11 17:00:00 20.8 11 Sudoeste 28 Sudoeste 0 -- -- 69
2018-10-11 16:00:00 20.2 12 Sudoeste 28 Sudoeste 0 -- -- 71
2018-10-11 15:00:00 19.2 10 Sudoeste 34 Sudoeste 0 -- -- 78
2018-10-11 14:00:00 18 14 Sudoeste 35 Sudoeste 0 -- -- 88
2018-10-11 13:00:00 16.8 9 Sudoeste 30 Sudoeste 0 -- -- 95
2018-10-11 12:00:00 16.3 7 Sudoeste 15 Sudoeste 4.2 -- -- 97
2018-10-11 11:00:00 16.2 10 Sudoeste 15 Sudoeste 5.2 -- -- 96
2018-10-11 10:00:00 16.1 2 Sur 17 Sudoeste 5.4 -- -- 96
2018-10-11 09:00:00 16.2 12 Sudoeste 19 Sudoeste 1.4 -- -- 95
2018-10-11 08:00:00 16.4 5 Sudoeste 13 Sur 0.4 -- -- 94
2018-10-11 07:00:00 16.8 6 Sur 15 Sudoeste 0.2 -- -- 91
2018-10-11 06:00:00 16.9 3 Sudoeste 6 Sur 0 -- -- 85
2018-10-11 05:00:00 16.9 3 Sudoeste 9 Sur 0 -- -- 85
2018-10-11 04:00:00 16.7 0 Calma 6 Sur 0 -- -- 85
2018-10-11 03:00:00 16.8 3 Sur 6 Sur 0 -- -- 85
2018-10-11 02:00:00 16.3 0 Calma 6 Sur 0 -- -- 91
2018-10-11 01:00:00 16.2 2 Sur 8 Sur 0 -- -- 93
2018-10-11 00:00:00 16.6 0 Calma 5 Este 0 -- -- 94
2018-10-10 23:00:00 16.7 0 Calma 10 Este 0 -- -- 93
2018-10-10 22:00:00 17.2 5 Este 10 Nordeste 0 -- -- 93
2018-10-10 21:00:00 17.5 0 Calma 9 Sudeste 0 -- -- 92
2018-10-10 20:00:00 17.9 4 Sudoeste 9 Sur 0 -- -- 90
2018-10-10 19:00:00 19 6 Sudoeste 13 Sudoeste 0 -- -- 84
2018-10-10 18:00:00 20.2 5 Sur 15 Sudoeste 0 -- -- 73
2018-10-10 17:00:00 19.1 3 Sudoeste 13 Sur 0 -- -- 82
2018-10-10 16:00:00 19.3 4 Sudoeste 18 Sudoeste 0 -- -- 80
2018-10-10 15:00:00 18.9 10 Sudoeste 16 Sudoeste 0 -- -- 83
2018-10-10 14:00:00 18.9 7 Sudoeste 15 Sudoeste 0 -- -- 84
2018-10-10 13:00:00 18.8 5 Sudoeste 14 Oeste 0 -- -- 82
2018-10-10 12:00:00 18.1 4 Sudoeste 10 Sudoeste 0 -- -- 85
2018-10-10 11:00:00 16.9 2 Sudeste 7 Este 0 -- -- 88
2018-10-10 10:00:00 15.4 4 Nordeste 9 Nordeste 0 -- -- 90
2018-10-10 09:00:00 14.6 5 Este 8 Este 0 -- -- 91
2018-10-10 08:00:00 15 3 Sur 11 Este 0 -- -- 88
2018-10-10 07:00:00 15.3 8 Este 12 Este 0 -- -- 92
2018-10-10 06:00:00 14.7 2 Norte 8 Nordeste 0 -- -- 93
2018-10-10 05:00:00 14.8 4 Nordeste 12 Norte 0 -- -- 94
2018-10-10 04:00:00 14.4 5 Norte 17 Norte 0.8 -- -- 94
2018-10-10 03:00:00 15.1 4 Noroeste 32 Norte 1.4 -- -- 93
2018-10-10 02:00:00 14.8 5 Noroeste 25 Sudoeste 5.6 -- -- 94
2018-10-10 01:00:00 14.5 7 Nordeste 19 Sudeste 9 -- -- 93
2018-10-10 00:00:00 16.1 6 Sur 30 Sur 6 -- -- 94
2018-10-09 23:00:00 16.7 3 Sudoeste 10 Sudoeste 0 -- -- 90
2018-10-09 22:00:00 16.7 0 Calma 7 Sudoeste 0 -- -- 86
2018-10-09 21:00:00 17.1 3 Sudoeste 12 Este 0 -- -- 86
2018-10-09 20:00:00 17.5 5 Sudoeste 15 Sudoeste 0 -- -- 84
2018-10-09 19:00:00 19.4 5 Sudoeste 17 Sudoeste 0 -- -- 75
2018-10-09 18:00:00 19.7 5 Este 17 Este 0 -- -- 73
2018-10-09 17:00:00 20.3 6 Este 21 Sudoeste 0 -- -- 69
2018-10-09 16:00:00 22 6 Sur 24 Sudoeste 0 -- -- 63
2018-10-09 15:00:00 22.9 9 Sudoeste 22 Sur 0 -- -- 61
2018-10-09 14:00:00 22.3 9 Sudoeste 22 Sur 0 -- -- 64
2018-10-09 13:00:00 20.6 5 Sudeste 21 Sudoeste 0 -- -- 71
2018-10-09 12:00:00 19 6 Sudoeste 15 Sudoeste 0 -- -- 78
2018-10-09 11:00:00 17.6 5 Sudoeste 12 Sudoeste 0 -- -- 83
2018-10-09 10:00:00 16.8 6 Sudoeste 13 Sudoeste 0 -- -- 88
2018-10-09 09:00:00 16.2 0 Calma 10 Nordeste 0 -- -- 84
2018-10-09 08:00:00 15.8 3 Este 9 Este 0 -- -- 88
2018-10-09 07:00:00 15.2 4 Norte 8 Noroeste 0 -- -- 91
2018-10-09 06:00:00 15 3 Nordeste 9 Nordeste 0 -- -- 91
2018-10-09 05:00:00 15.9 2 Sudoeste 12 Nordeste 0 -- -- 91
2018-10-09 04:00:00 15.8 0 Calma 9 Nordeste 0 -- -- 91
2018-10-09 03:00:00 15.7 3 Nordeste 6 Sudeste 0 -- -- 90
2018-10-09 02:00:00 15.8 0 Calma 6 Sudoeste 0 -- -- 91
2018-10-09 01:00:00 16.2 0 Calma 5 Nordeste 0 -- -- 85
2018-10-09 00:00:00 16.5 4 Nordeste 6 Norte 0 -- -- 82
2018-10-08 23:00:00 16.7 0 Calma 6 Sudoeste 0 -- -- 86
2018-10-08 22:00:00 17.3 4 Sudoeste 8 Sur 0 -- -- 81
2018-10-08 21:00:00 18.8 4 Sur 9 Oeste 0 -- -- 66
2018-10-08 20:00:00 19.8 8 Sudoeste 13 Sur 0 -- -- 74
2018-10-08 19:00:00 22.7 10 Sudoeste 21 Sudoeste 0 -- -- 65
2018-10-08 18:00:00 23.5 13 Sudoeste 23 Sudoeste 0 -- -- 60
2018-10-08 17:00:00 23.4 12 Sudoeste 30 Sudoeste 0 -- -- 65
2018-10-08 16:00:00 22.6 13 Sudoeste 33 Sudoeste 0 -- -- 67
2018-10-08 15:00:00 23.1 13 Sudoeste 26 Sur 0 -- -- 64
2018-10-08 14:00:00 23.4 12 Sudoeste 27 Sudoeste 0 -- -- 58
2018-10-08 13:00:00 22.1 10 Sudoeste 23 Sur 0 -- -- 65
2018-10-08 12:00:00 21.6 7 Sudoeste 15 Sur 0 -- -- 64
2018-10-08 11:00:00 20.2 4 Sudoeste 8 Sudoeste 0 -- -- 62
2018-10-08 10:00:00 16.8 4 Nordeste 10 Norte 0 -- -- 76
2018-10-08 09:00:00 15.7 6 Norte 10 Norte 0 -- -- 69
2018-10-08 08:00:00 16.1 6 Norte 10 Norte 0 -- -- 60
2018-10-08 07:00:00 17.1 4 Sudeste 14 Sudoeste 0 -- -- 75
2018-10-08 06:00:00 18.6 4 Este 12 Nordeste 0 -- -- 44
2018-10-08 05:00:00 16.4 11 Nordeste 14 Nordeste 0 -- -- 50
2018-10-08 04:00:00 15.5 11 Nordeste 18 Norte 0 -- -- 54
2018-10-08 03:00:00 16.4 11 Norte 20 Norte 0 -- -- 51
2018-10-08 02:00:00 17.2 7 Nordeste 17 Nordeste 0 -- -- 48
2018-10-08 01:00:00 17.9 10 Nordeste 22 Norte 0 -- -- 45
2018-10-08 00:00:00 20.2 10 Norte 29 Norte 0 -- -- 39
2018-10-07 23:00:00 20.4 13 Norte 30 Norte 0 -- -- 40
2018-10-07 22:00:00 20.1 6 Nordeste 16 Norte 0 -- -- 43
2018-10-07 21:00:00 21.7 8 Norte 16 Norte 0 -- -- 40
2018-10-07 20:00:00 23.7 5 Noroeste 20 Norte 0 -- -- 34
2018-10-07 19:00:00 26.4 6 Oeste 21 Noroeste 0 -- -- 34
2018-10-07 18:00:00 27.5 9 Norte 26 Oeste 0 -- -- 34
2018-10-07 17:00:00 27.8 9 Norte 28 Norte 0 -- -- 34
2018-10-07 16:00:00 27.9 10 Noroeste 26 Norte 0 -- -- 39
2018-10-07 15:00:00 28.5 11 Noroeste 27 Sudoeste 0 -- -- 35
2018-10-07 14:00:00 28.3 11 Noroeste 29 Sudoeste 0 -- -- 32
2018-10-07 13:00:00 28 10 Sudoeste 24 Oeste 0 -- -- 32
2018-10-07 12:00:00 26.2 8 Norte 21 Norte 0 -- -- 34
2018-10-07 11:00:00 23.9 6 Norte 16 Norte 0 -- -- 35
2018-10-07 10:00:00 18.3 10 Norte 15 Norte 0 -- -- 53
2018-10-07 09:00:00 16.9 10 Nordeste 16 Nordeste 0 -- -- 56
2018-10-07 08:00:00 15 10 Nordeste 17 Nordeste 0 -- -- 72
2018-10-07 07:00:00 17.9 8 Norte 17 Norte 0 -- -- 57
2018-10-07 06:00:00 15.7 14 Norte 18 Norte 0 -- -- 74
2018-10-07 05:00:00 16 5 Nordeste 13 Norte 0 -- -- 74
2018-10-07 04:00:00 18 10 Norte 16 Nordeste 0 -- -- 66
2018-10-07 03:00:00 18.1 10 Norte 15 Nordeste 0 -- -- 66
2018-10-07 02:00:00 19.5 3 Sudoeste 11 Norte 0 -- -- 56
2018-10-07 01:00:00 18.5 4 Norte 15 Norte 0 -- -- 71
2018-10-07 00:00:00 19.6 10 Norte 14 Norte 0 -- -- 65
2018-10-06 23:00:00 18.8 11 Nordeste 14 Nordeste 0 -- -- 71
2018-10-06 22:00:00 18.6 10 Nordeste 13 Nordeste 0 -- -- 72
2018-10-06 21:00:00 19.4 5 Nordeste 12 Norte 0 -- -- 69
2018-10-06 20:00:00 20.3 4 Norte 9 Norte 0 -- -- 69
2018-10-06 19:00:00 22.7 6 Sudoeste 14 Sudoeste 0 -- -- 61
2018-10-06 18:00:00 24.2 9 Sudoeste 16 Sudoeste 0 -- -- 59
2018-10-06 17:00:00 23.8 12 Sudoeste 26 Sudoeste 0 -- -- 56
2018-10-06 16:00:00 23.8 19 Sudoeste 31 Sudoeste 0 -- -- 59
2018-10-06 15:00:00 24.5 12 Sudoeste 24 Sudoeste 0 -- -- 58
2018-10-06 14:00:00 24.4 11 Sudoeste 18 Sudoeste 0 -- -- 58
2018-10-06 13:00:00 23.5 5 Sudoeste 17 Sudoeste 0 -- -- 56
2018-10-06 12:00:00 21.3 8 Sudoeste 17 Oeste 0 -- -- 60
2018-10-06 11:00:00 20.5 5 Sur 14 Sudoeste 0 -- -- 61
2018-10-06 10:00:00 17.1 0 Calma 7 Este 0 -- -- 58
2018-10-06 09:00:00 17.1 4 Este 8 Este 0 -- -- 55
2018-10-06 08:00:00 16 0 Calma 11 Nordeste 0 -- -- 58
2018-10-06 07:00:00 16.5 3 Sur 6 Este 0 -- -- 58
2018-10-06 06:00:00 17.4 3 Este 10 Noroeste 0 -- -- 51
2018-10-06 05:00:00 17.1 0 Calma 10 Norte 0 -- -- 52
2018-10-06 04:00:00 17.1 2 Oeste 12 Nordeste 0 -- -- 50
2018-10-06 03:00:00 17.7 0 Calma 15 Este 0 -- -- 46
2018-10-06 02:00:00 17.7 3 Norte 10 Norte 0 -- -- 46
2018-10-06 01:00:00 17.9 3 Este 12 Nordeste 0 -- -- 45
2018-10-06 00:00:00 17.9 3 Norte 9 Nordeste 0 -- -- 46
2018-10-05 23:00:00 17.9 0 Calma 6 Nordeste 0 -- -- 48
2018-10-05 22:00:00 18.5 2 Nordeste 10 Sur 0 -- -- 50
2018-10-05 21:00:00 18.8 2 Oeste 11 Nordeste 0 -- -- 53
2018-10-05 20:00:00 20.1 4 Este 14 Nordeste 0 -- -- 53
2018-10-05 19:00:00 23.8 4 Sudoeste 17 Sur 0 -- -- 46
2018-10-05 18:00:00 24.7 6 Nordeste 17 Sudoeste 0 -- -- 45
2018-10-05 17:00:00 25.3 5 Sudoeste 19 Oeste 0 -- -- 46
2018-10-05 16:00:00 25.1 8 Sudoeste 21 Sudeste 0 -- -- 49
2018-10-05 15:00:00 25.2 8 Sudoeste 22 Sudoeste 0 -- -- 48
2018-10-05 14:00:00 24.2 13 Sudoeste 23 Oeste 0 -- -- 49
2018-10-05 13:00:00 23.9 5 Sudoeste 12 Sudoeste 0 -- -- 45
2018-10-05 12:00:00 22.6 5 Sudeste 17 Nordeste 0 -- -- 45
2018-10-05 11:00:00 20.9 3 Sudeste 10 Sudeste 0 -- -- 47
2018-10-05 10:00:00 17.6 3 Sudoeste 10 Norte 0 -- -- 56
2018-10-05 09:00:00 16.9 2 Oeste 12 Nordeste 0 -- -- 52
2018-10-05 08:00:00 17.2 2 Sudoeste 13 Este 0 -- -- 47
2018-10-05 07:00:00 17.3 2 Oeste 10 Sudeste 0 -- -- 47
2018-10-05 06:00:00 17.1 3 Oeste 10 Norte 0 -- -- 47
2018-10-05 05:00:00 17.1 4 Sudoeste 14 Nordeste 0 -- -- 47
2018-10-05 04:00:00 17.4 3 Sudoeste 11 Oeste 0 -- -- 46
2018-10-05 03:00:00 18.2 2 Sudoeste 12 Este 0 -- -- 44
2018-10-05 02:00:00 17.9 3 Este 9 Nordeste 0 -- -- 44
2018-10-05 01:00:00 18.1 2 Sudeste 10 Nordeste 0 -- -- 43
2018-10-05 00:00:00 18.2 0 Calma 5 Sudeste 0 -- -- 44
2018-10-04 23:00:00 18.5 2 Sur 6 Nordeste 0 -- -- 43
2018-10-04 22:00:00 19.1 0 Calma 7 Oeste 0 -- -- 40
2018-10-04 21:00:00 19.7 3 Oeste 11 Norte 0 -- -- 39
2018-10-04 20:00:00 21.5 4 Noroeste 14 Norte 0 -- -- 37
2018-10-04 19:00:00 25 4 Sudoeste 15 Sudoeste 0 -- -- 31
2018-10-04 18:00:00 26.3 6 Sudoeste 19 Sudoeste 0 -- -- 30
2018-10-04 17:00:00 26.5 11 Sudoeste 25 Sudoeste 0 -- -- 32
2018-10-04 16:00:00 26.5 12 Sudoeste 25 Sudoeste 0 -- -- 32
2018-10-04 15:00:00 26 14 Sudoeste 32 Sudoeste 0 -- -- 33
2018-10-04 14:00:00 25.6 12 Sudoeste 32 Sudoeste 0 -- -- 35
2018-10-04 13:00:00 24.7 10 Sudoeste 23 Sudoeste 0 -- -- 38
2018-10-04 12:00:00 22.5 8 Sudoeste 16 Sudoeste 0 -- -- 46
2018-10-04 11:00:00 21.4 4 Sur 10 Oeste 0 -- -- 43
2018-10-04 10:00:00 18.6 4 Nordeste 13 Este 0 -- -- 47
2018-10-04 09:00:00 17.4 2 Oeste 6 Noroeste 0 -- -- 53
2018-10-04 08:00:00 17.7 3 Noroeste 10 Nordeste 0 -- -- 51
2018-10-04 07:00:00 17.4 2 Sudoeste 8 Sur 0 -- -- 49
2018-10-04 06:00:00 17.6 0 Calma 6 Nordeste 0 -- -- 43
2018-10-04 05:00:00 18 2 Noroeste 8 Este 0 -- -- 40
2018-10-04 04:00:00 18.4 3 Nordeste 11 Nordeste 0 -- -- 36
2018-10-04 03:00:00 18.2 2 Oeste 8 Sudoeste 0 -- -- 39
2018-10-04 02:00:00 18.3 3 Oeste 9 Nordeste 0 -- -- 41
2018-10-04 01:00:00 18.3 4 Sudoeste 11 Oeste 0 -- -- 40
2018-10-04 00:00:00 18.4 2 Oeste 10 Sudoeste 0 -- -- 44
2018-10-03 23:00:00 18.4 4 Sudoeste 13 Oeste 0 -- -- 44
2018-10-03 22:00:00 18.8 3 Oeste 9 Oeste 0 -- -- 36
2018-10-03 21:00:00 19.7 3 Oeste 9 Este 0 -- -- 33
2018-10-03 20:00:00 21.2 2 Sudoeste 12 Noroeste 0 -- -- 34
2018-10-03 19:00:00 24.3 3 Sudoeste 14 Sudeste 0 -- -- 36
2018-10-03 18:00:00 24.8 5 Sudeste 19 Oeste 0 -- -- 36
2018-10-03 17:00:00 25 6 Oeste 18 Norte 0 -- -- 44
2018-10-03 16:00:00 24.5 6 Noroeste 18 Norte 0 -- -- 50
2018-10-03 15:00:00 24.5 7 Sur 23 Sudoeste 0 -- -- 52
2018-10-03 14:00:00 24 9 Sudoeste 23 Sudoeste 0 -- -- 59
2018-10-03 13:00:00 23.7 6 Sur 18 Sudoeste 0 -- -- 58
2018-10-03 12:00:00 22 6 Sudoeste 15 Sur 0 -- -- 60
2018-10-03 11:00:00 20.5 3 Sudeste 10 Sudeste 0 -- -- 65
2018-10-03 10:00:00 17.5 2 Sudoeste 10 Nordeste 0 -- -- 72
2018-10-03 09:00:00 16.1 2 Norte 8 Norte 0 -- -- 75
2018-10-03 08:00:00 16 3 Norte 10 Este 0 -- -- 77
2018-10-03 07:00:00 16 2 Oeste 9 Norte 0 -- -- 84
2018-10-03 06:00:00 16.3 3 Sudeste 12 Este 0 -- -- 84
2018-10-03 05:00:00 16.3 4 Sudoeste 9 Sudoeste 0 -- -- 85
2018-10-03 04:00:00 16.8 3 Oeste 9 Sur 0 -- -- 84
2018-10-03 03:00:00 17.4 3 Nordeste 9 Oeste 0 -- -- 84
2018-10-03 02:00:00 17.2 2 Norte 10 Sudeste 0 -- -- 86
2018-10-03 01:00:00 17.1 0 Calma 6 Sudeste 0 -- -- 90
2018-10-03 00:00:00 17.9 0 Calma 8 Este 0 -- -- 81
2018-10-02 23:00:00 18.6 4 Este 6 Este 0 -- -- 79
2018-10-02 22:00:00 18.7 5 Este 7 Este 0 -- -- 82
2018-10-02 21:00:00 -- -- -- -- -- -- -- -- --
2018-10-02 20:00:00 -- -- -- -- -- -- -- -- --
2018-10-02 19:00:00 -- -- -- -- -- -- -- -- --
2018-10-02 18:00:00 -- -- -- -- -- -- -- -- --
2018-10-02 17:00:00 -- -- -- -- -- -- -- -- --
2018-10-02 16:00:00 -- -- -- -- -- -- -- -- --
2018-10-02 15:00:00 -- -- -- -- -- -- -- -- --
2018-10-02 14:00:00 -- -- -- -- -- -- -- -- --
2018-10-02 13:00:00 23.5 11 Sudoeste 19 Sudoeste 0 -- -- 67
2018-10-02 12:00:00 21.8 9 Sudoeste 18 Sudoeste 0 -- -- 74
2018-10-02 11:00:00 21.1 4 Sudoeste 9 Sudoeste 0 -- -- 73
2018-10-02 10:00:00 18.5 -- -- -- -- -- -- -- --
2018-10-02 09:00:00 17.9 0 Calma 6 Sudoeste 0 -- -- 75
2018-10-02 08:00:00 18 2 Sur 10 Nordeste 0 -- -- 73
2018-10-02 07:00:00 18.7 5 Nordeste 13 Nordeste 0 -- -- 69
2018-10-02 06:00:00 18 11 Nordeste 13 Nordeste 0 -- -- 74
2018-10-02 05:00:00 18.2 6 Nordeste 16 Nordeste 0 -- -- 75
2018-10-02 04:00:00 18.7 9 Nordeste 15 Norte 0 -- -- 74
2018-10-02 03:00:00 18.5 8 Nordeste 15 Nordeste 0 -- -- 76
2018-10-02 02:00:00 19.1 6 Norte 18 Norte 0 -- -- 75
2018-10-02 01:00:00 19.4 9 Norte 15 Norte 0 -- -- 76
2018-10-02 00:00:00 19.9 9 Nordeste 13 Nordeste 0 -- -- 74
2018-10-01 23:00:00 21.1 8 Nordeste 16 Norte 0 -- -- 70
2018-10-01 22:00:00 21.6 9 Norte 18 Norte 0 -- -- 69
2018-10-01 21:00:00 22.9 10 Norte 22 Norte 0 -- -- 63
2018-10-01 20:00:00 24.1 3 Norte 12 Sudoeste 0 -- -- 57
2018-10-01 19:00:00 24.7 8 Oeste 17 Oeste 0 -- -- 54
2018-10-01 18:00:00 23.7 4 Sudoeste 16 Sur 0 -- -- 49
2018-10-01 17:00:00 25.4 7 Sudoeste 28 Noroeste 0 -- -- 52
2018-10-01 16:00:00 28.6 12 Noroeste 30 Noroeste 0 -- -- 41
2018-10-01 15:00:00 28.2 6 Oeste 17 Noroeste 0 -- -- 41
2018-10-01 14:00:00 28.4 6 Noroeste 16 Norte 0 -- -- 41
2018-10-01 13:00:00 27.4 6 Nordeste 17 Norte 0 -- -- 42
2018-10-01 12:00:00 23.8 5 Nordeste 16 Nordeste 0 -- -- 55
2018-10-01 11:00:00 21.4 9 Nordeste 16 Nordeste 0 -- -- 66
2018-10-01 10:00:00 18 6 Nordeste 17 Nordeste 0 -- -- 80
2018-10-01 09:00:00 17.2 9 Nordeste 21 Norte 0 -- -- 84
2018-10-01 08:00:00 17.1 11 Norte 21 Norte 0 -- -- 88
2018-10-01 07:00:00 17.2 12 Norte 23 Noroeste 0 -- -- 88
2018-10-01 06:00:00 18.8 14 Norte 24 Norte 0 -- -- 75
2018-10-01 05:00:00 17.6 6 Nordeste 11 Norte 0 -- -- 89
2018-10-01 04:00:00 17.6 6 Norte 11 Nordeste 0 -- -- 87
2018-10-01 03:00:00 19.1 7 Sudoeste 10 Sur 0 -- -- 81
2018-10-01 02:00:00 19.9 8 Nordeste 13 Norte 0 -- -- 74
2018-10-01 01:00:00 18.7 9 Norte 13 Norte 0 -- -- 80
2018-10-01 00:00:00 19.3 8 Nordeste 15 Norte 0 -- -- 76
2018-09-30 23:00:00 19.5 8 Nordeste 17 Norte 0 -- -- 77
2018-09-30 22:00:00 18.9 6 Nordeste 9 Norte 0 -- -- 83
2018-09-30 21:00:00 19.1 3 Norte 7 Nordeste 0 -- -- 84
2018-09-30 20:00:00 19.7 3 Sudoeste 11 Norte 0 -- -- 80
2018-09-30 19:00:00 19.8 6 Sudoeste 14 Sur 0 -- -- 80
2018-09-30 18:00:00 21.4 8 Sudoeste 14 Sur 0 -- -- 73
2018-09-30 17:00:00 21.3 4 Sudoeste 11 Sudoeste 0 -- -- 73
2018-09-30 16:00:00 21.3 5 Sudoeste 16 Sudoeste 0 -- -- 73
2018-09-30 15:00:00 21.6 11 Sudoeste 33 Sudoeste 0 -- -- 72
2018-09-30 14:00:00 22.4 18 Sudoeste 31 Oeste 0 -- -- 70
2018-09-30 13:00:00 22.8 13 Sudoeste 21 Sur 0 -- -- 67
2018-09-30 12:00:00 21.9 9 Sudoeste 17 Sudoeste 0 -- -- 69
2018-09-30 11:00:00 20.1 6 Sudoeste 12 Norte 0 -- -- 66
2018-09-30 10:00:00 17.5 5 Norte 11 Norte 0 -- -- 78
2018-09-30 09:00:00 16 6 Nordeste 14 Norte 0 -- -- 86
2018-09-30 08:00:00 15.8 5 Nordeste 9 Nordeste 0 -- -- 88
2018-09-30 07:00:00 16.3 2 Sudoeste 5 Sur 0 -- -- 85
2018-09-30 06:00:00 16.7 3 Sur 9 Este 0 -- -- 82
2018-09-30 05:00:00 15.9 0 Calma 5 Sur 0 -- -- 91
2018-09-30 04:00:00 15.5 4 Nordeste 9 Nordeste 0 -- -- 93
2018-09-30 03:00:00 16.3 0 Calma 4 Sudoeste 0 -- -- 90
2018-09-30 02:00:00 16.5 0 Calma 10 Nordeste 0 -- -- 91
2018-09-30 01:00:00 16.2 6 Nordeste 11 Norte 0 -- -- 92
2018-09-30 00:00:00 16.9 0 Calma 5 Sur 0 -- -- 91
2018-09-29 23:00:00 17.3 2 Sudoeste 8 Nordeste 0 -- -- 86
2018-09-29 22:00:00 17.8 5 Nordeste 9 Norte 0 -- -- 84
2018-09-29 21:00:00 18.8 0 Calma 9 Noroeste 0 -- -- 79
2018-09-29 20:00:00 20.6 2 Sudoeste 10 Sudoeste 0 -- -- 73
2018-09-29 19:00:00 23.2 7 Sudoeste 20 Oeste 0 -- -- 65
2018-09-29 18:00:00 24.4 10 Sudoeste 21 Sudoeste 0 -- -- 61
2018-09-29 17:00:00 24.2 15 Sudoeste 27 Sudoeste 0 -- -- 60
2018-09-29 16:00:00 24 16 Sudoeste 27 Sudoeste 0 -- -- 59
2018-09-29 15:00:00 23.8 17 Sudoeste 29 Sudoeste 0 -- -- 60
2018-09-29 14:00:00 24 12 Sudoeste 26 Sudoeste 0 -- -- 58
2018-09-29 13:00:00 23.6 8 Sudoeste 19 Sudoeste 0 -- -- 57
2018-09-29 12:00:00 22 10 Sudoeste 17 Sudoeste 0 -- -- 60
2018-09-29 11:00:00 20.6 6 Sudoeste 13 Sudoeste 0 -- -- 65
2018-09-29 10:00:00 18.1 3 Este 7 Este 0 -- -- 74
2018-09-29 09:00:00 17 3 Nordeste 9 Este 0 -- -- 77
2018-09-29 08:00:00 16.8 3 Noroeste 9 Nordeste 0 -- -- 78
2018-09-29 07:00:00 17 2 Oeste 13 Nordeste 0 -- -- 77
2018-09-29 06:00:00 17.1 3 Norte 9 Nordeste 0 -- -- 77
2018-09-29 05:00:00 17.3 3 Norte 13 Norte 0 -- -- 76
2018-09-29 04:00:00 17.3 3 Norte 10 Noroeste 0 -- -- 76
2018-09-29 03:00:00 17.4 3 Oeste 10 Este 0 -- -- 75
2018-09-29 02:00:00 17.3 3 Noroeste 12 Este 0 -- -- 76
2018-09-29 01:00:00 17.1 2 Noroeste 13 Nordeste 0 -- -- 79
2018-09-29 00:00:00 17.2 4 Sudeste 11 Sudeste 0 -- -- 78
2018-09-28 23:00:00 17.3 3 Oeste 11 Noroeste 0 -- -- 77
2018-09-28 22:00:00 17.8 3 Este 9 Este 0 -- -- 75
2018-09-28 21:00:00 18.3 0 Calma 11 Sudoeste 0 -- -- 75
2018-09-28 20:00:00 19.9 3 Sudoeste 13 Sur 0 -- -- 71
2018-09-28 19:00:00 22.7 5 Sudoeste 18 Sudoeste 0 -- -- 64
2018-09-28 18:00:00 22.8 9 Sur 22 Sur 0 -- -- 64
2018-09-28 17:00:00 24.3 5 Sudoeste 17 Sudoeste 0 -- -- 58
2018-09-28 16:00:00 24.4 7 Sur 22 Sudoeste 0 -- -- 57
2018-09-28 15:00:00 23.8 7 Sur 17 Sudoeste 0 -- -- 58
2018-09-28 14:00:00 23.4 8 Sudoeste 20 Sudoeste 0 -- -- 59
2018-09-28 13:00:00 20.8 5 Sudoeste 16 Sur 0 -- -- 70
2018-09-28 12:00:00 20 4 Sudoeste 14 Sudoeste 0 -- -- 76
2018-09-28 11:00:00 19.4 6 Sur 15 Sudeste 0 -- -- 77
2018-09-28 10:00:00 18.9 5 Sudoeste 12 Sudeste 0 -- -- 78
2018-09-28 09:00:00 17.9 3 Sudoeste 14 Sur 0 -- -- 82
2018-09-28 08:00:00 17.8 4 Sudoeste 15 Sudeste 0 -- -- 82
2018-09-28 07:00:00 17.9 5 Oeste 15 Oeste 0 -- -- 81
2018-09-28 06:00:00 18.3 5 Sudoeste 17 Sudoeste 0 -- -- 79
2018-09-28 05:00:00 18.4 4 Sur 21 Sur 0 -- -- 79
2018-09-28 04:00:00 18.4 6 Sur 23 Este 0 -- -- 78
2018-09-28 03:00:00 18.6 6 Oeste 17 Este 0 -- -- 77
2018-09-28 02:00:00 18.7 7 Oeste 27 Sudeste 0 -- -- 75
2018-09-28 01:00:00 18.9 9 Sur 24 Sudeste 0 -- -- 76
2018-09-28 00:00:00 18.9 8 Sudeste 27 Este 0 -- -- 76
2018-09-27 23:00:00 19.2 8 Sudeste 27 Sur 0 -- -- 69
2018-09-27 22:00:00 19.3 6 Sudeste 29 Este 0 -- -- 66
2018-09-27 21:00:00 19.5 9 Sudoeste 28 Sudeste 0 -- -- 70
2018-09-27 20:00:00 20.1 9 Sur 23 Sudeste 0 -- -- 72
2018-09-27 19:00:00 21.2 8 Sudoeste 19 Sur 0 -- -- 68
2018-09-27 18:00:00 21.3 6 Oeste 20 Sudoeste 0 -- -- 68
2018-09-27 17:00:00 21.9 7 Sudoeste 27 Este 0 -- -- 67
2018-09-27 16:00:00 20.6 9 Sudeste 31 Sudeste 0 -- -- 69
2018-09-27 15:00:00 21.3 9 Sur 30 Este 0 -- -- 68
2018-09-27 14:00:00 21.9 10 Sudoeste 39 Sur 0 -- -- 68
2018-09-27 13:00:00 22.1 10 Sur 28 Sudeste 0 -- -- 68
2018-09-27 12:00:00 20.9 7 Sur 35 Este 0 -- -- 72
2018-09-27 11:00:00 20.6 9 Sur 26 Este 0 -- -- 74
2018-09-27 10:00:00 20.2 7 Sur 26 Sudeste 0 -- -- 73
2018-09-27 09:00:00 19.9 6 Este 29 Este 0 -- -- 76
2018-09-27 08:00:00 19.9 8 Sur 33 Nordeste 0 -- -- 76
2018-09-27 07:00:00 19.7 9 Este 21 Sudeste 0 -- -- 75
2018-09-27 06:00:00 19.8 7 Sur 24 Sur 0 -- -- 74
2018-09-27 05:00:00 20.1 6 Sur 28 Sudeste 0 -- -- 72
2018-09-27 04:00:00 20.3 5 Sur 26 Sudeste 0 -- -- 74
2018-09-27 03:00:00 20.4 6 Sur 28 Sur 0 -- -- 73
2018-09-27 02:00:00 20.5 8 Sur 28 Sudeste 0 -- -- 71
2018-09-27 01:00:00 20.5 10 Sudeste 31 Este 0 -- -- 74
2018-09-27 00:00:00 20.5 10 Sur 38 Sudeste 0 -- -- 74
2018-09-26 23:00:00 21.1 10 Sur 33 Sudeste 0 -- -- 71
2018-09-26 22:00:00 21.2 13 Sudeste 31 Sudeste 0 -- -- 71
2018-09-26 21:00:00 21.1 6 Sudoeste 21 Sudeste 0 -- -- 66
2018-09-26 20:00:00 21.6 9 Sudoeste 31 Sudeste 0 -- -- 65
2018-09-26 19:00:00 23.5 6 Sur 31 Sur 0 -- -- 60
2018-09-26 18:00:00 24.1 7 Sudoeste 22 Oeste 0 -- -- 56
2018-09-26 17:00:00 24.2 7 Sudoeste 20 Sur 0 -- -- 62
2018-09-26 16:00:00 24.3 6 Este 22 Este 0 -- -- 60
2018-09-26 15:00:00 24.6 6 Sur 22 Este 0 -- -- 57
2018-09-26 14:00:00 24.2 6 Sudoeste 21 Sur 0 -- -- 61
2018-09-26 13:00:00 24.7 9 Sudoeste 21 Sudoeste 0 -- -- 59
2018-09-26 12:00:00 23.1 6 Sur 27 Sudeste 0 -- -- 64
2018-09-26 11:00:00 22.2 8 Sur 19 Sudeste 0 -- -- 67
2018-09-26 10:00:00 20.6 6 Sudoeste 17 Sudeste 0 -- -- 72
2018-09-26 09:00:00 19.9 7 Sur 16 Sudeste 0 -- -- 74
2018-09-26 08:00:00 20 6 Sur 18 Sudeste 0 -- -- 68
2018-09-26 07:00:00 20 5 Oeste 14 Sur 0 -- -- 74
2018-09-26 06:00:00 19.9 8 Sudoeste 19 Este 0 -- -- 75
2018-09-26 05:00:00 20.1 6 Sudoeste 19 Oeste 0 -- -- 73
2018-09-26 04:00:00 20.3 6 Oeste 24 Sur 0 -- -- 71
2018-09-26 03:00:00 20.6 6 Oeste 19 Noroeste 0 -- -- 73
2018-09-26 02:00:00 20.6 7 Oeste 23 Este 0 -- -- 74
2018-09-26 01:00:00 20.9 6 Oeste 16 Este 0 -- -- 70
2018-09-26 00:00:00 20.8 4 Oeste 12 Sur 0 -- -- 70
2018-09-25 23:00:00 20.8 5 Oeste 13 Oeste 0 -- -- 72
2018-09-25 22:00:00 21 6 Oeste 15 Sudeste 0 -- -- 72
2018-09-25 21:00:00 21.5 5 Sudoeste 16 Nordeste 0 -- -- 74
2018-09-25 20:00:00 22.8 4 Sur 18 Sudeste 0 -- -- 68
2018-09-25 19:00:00 25.7 6 Sudoeste 22 Este 0 -- -- 59
2018-09-25 18:00:00 26.6 7 Oeste 21 Sudeste 0 -- -- 56
2018-09-25 17:00:00 27 6 Sudeste 21 Este 0 -- -- 56
2018-09-25 16:00:00 28 5 Sudeste 20 Sur 0 -- -- 51
2018-09-25 15:00:00 28 6 Oeste 26 Nordeste 0 -- -- 48
2018-09-25 14:00:00 27.5 6 Este 17 Sur 0 -- -- 45
2018-09-25 13:00:00 27 7 Oeste 22 Noroeste 0 -- -- 42
2018-09-25 12:00:00 25.3 8 Sudoeste 19 Sudoeste 0 -- -- 43
2018-09-25 11:00:00 24.1 6 Sudoeste 12 Sudoeste 0 -- -- 46
2018-09-25 10:00:00 22.6 3 Sudoeste 10 Sudoeste 0 -- -- 42
2018-09-25 09:00:00 22 4 Norte 10 Sudoeste 0 -- -- 41
2018-09-25 08:00:00 21.6 3 Sudoeste 8 Oeste 0 -- -- 43
2018-09-25 07:00:00 21.9 3 Sudoeste 12 Nordeste 0 -- -- 41
2018-09-25 06:00:00 22.2 2 Este 12 Nordeste 0 -- -- 40
2018-09-25 05:00:00 22.3 3 Nordeste 8 Noroeste 0 -- -- 38
2018-09-25 04:00:00 22.7 4 Oeste 13 Oeste 0 -- -- 35
2018-09-25 03:00:00 23.6 6 Oeste 23 Nordeste 0 -- -- 36
2018-09-25 02:00:00 23.9 9 Nordeste 27 Nordeste 0 -- -- 34
2018-09-25 01:00:00 24.2 4 Norte 21 Este 0 -- -- 33
2018-09-25 00:00:00 23.7 6 Este 16 Este 0 -- -- 33
2018-09-24 23:00:00 23.3 3 Norte 12 Noroeste 0 -- -- 37
2018-09-24 22:00:00 22.6 4 Sudoeste 15 Sur 0 -- -- 45
2018-09-24 21:00:00 23.4 0 Calma 8 Nordeste 0 -- -- 47
2018-09-24 20:00:00 25.3 2 Sur 19 Sudoeste 0 -- -- 40
2018-09-24 19:00:00 30.2 9 Sudoeste 19 Sudoeste 0 -- -- 34
2018-09-24 18:00:00 31.9 6 Sudoeste 15 Sudoeste 0 -- -- 31
2018-09-24 17:00:00 32 11 Sudoeste 19 Sudoeste 0 -- -- 34
2018-09-24 16:00:00 31.3 13 Sudoeste 23 Oeste 0 -- -- 36
2018-09-24 15:00:00 30.6 14 Sudoeste 23 Sudoeste 0 -- -- 37
2018-09-24 14:00:00 30.5 13 Sudoeste 26 Sudoeste 0 -- -- 35
2018-09-24 13:00:00 30.3 10 Sudoeste 22 Sur 0 -- -- 32
2018-09-24 12:00:00 28.8 7 Sur 17 Sur 0 -- -- 33
2018-09-24 11:00:00 26.8 4 Sudoeste 13 Sudoeste 0 -- -- 36
2018-09-24 10:00:00 24.2 5 Sudoeste 15 Noroeste 0 -- -- 39
2018-09-24 09:00:00 22.4 3 Nordeste 8 Norte 0 -- -- 42
2018-09-24 08:00:00 22.6 3 Norte 14 Noroeste 0 -- -- 40
2018-09-24 07:00:00 22.3 5 Norte 12 Oeste 0 -- -- 40
2018-09-24 06:00:00 22.1 3 Noroeste 9 Oeste 0 -- -- 41
2018-09-24 05:00:00 22.1 2 Oeste 7 Norte 0 -- -- 40
2018-09-24 04:00:00 22.6 4 Sudoeste 28 Norte 0 -- -- 40
2018-09-24 03:00:00 23.5 4 Oeste 23 Norte 0 -- -- 38
2018-09-24 02:00:00 23.9 6 Noroeste 17 Norte 0 -- -- 36
2018-09-24 01:00:00 23.5 5 Oeste 12 Norte 0 -- -- 39
2018-09-24 00:00:00 23.7 4 Oeste 15 Norte 0 -- -- 38
2018-09-23 23:00:00 23.4 8 Norte 20 Nordeste 0 -- -- 41
2018-09-23 22:00:00 22.8 3 Sudoeste 11 Oeste 0 -- -- 47
2018-09-23 21:00:00 23.9 4 Sudeste 12 Este 0 -- -- 42
2018-09-23 20:00:00 25.6 3 Noroeste 18 Oeste 0 -- -- 41
2018-09-23 19:00:00 29.7 5 Oeste 17 Sudoeste 0 -- -- 31
2018-09-23 18:00:00 30.5 7 Oeste 15 Oeste 0 -- -- 29
2018-09-23 17:00:00 31.5 6 Sudoeste 22 Este 0 -- -- 29
2018-09-23 16:00:00 30.3 8 Sur 25 Sur 0 -- -- 28
2018-09-23 15:00:00 29.6 8 Sudeste 25 Este 0 -- -- 29
2018-09-23 14:00:00 29.9 8 Sudoeste 22 Sur 0 -- -- 31
2018-09-23 13:00:00 29.5 7 Sudoeste 23 Sur 0 -- -- 30
2018-09-23 12:00:00 27.8 6 Sudoeste 22 Sudeste 0 -- -- 32
2018-09-23 11:00:00 26.2 6 Sur 20 Sudeste 0 -- -- 37
2018-09-23 10:00:00 23.8 4 Este 14 Norte 0 -- -- 40
2018-09-23 09:00:00 22.4 4 Norte 20 Nordeste 0 -- -- 42
2018-09-23 08:00:00 22.1 5 Norte 15 Norte 0 -- -- 40
2018-09-23 07:00:00 22.5 4 Oeste 14 Sur 0 -- -- 37
2018-09-23 06:00:00 22.3 5 Oeste 14 Noroeste 0 -- -- 36
2018-09-23 05:00:00 22.2 4 Oeste 15 Noroeste 0 -- -- 34
2018-09-23 04:00:00 22.1 4 Sudoeste 13 Oeste 0 -- -- 33
2018-09-23 03:00:00 21.5 4 Sudoeste 12 Oeste 0 -- -- 35
2018-09-23 02:00:00 20.7 3 Sur 12 Sudoeste 0 -- -- 38
2018-09-23 01:00:00 21.9 5 Sudoeste 14 Sudoeste 0 -- -- 34
2018-09-23 00:00:00 22.2 6 Sudoeste 15 Sudoeste 0 -- -- 34
2018-09-22 23:00:00 23 8 Sudoeste 15 Sudoeste 0 -- -- 31
2018-09-22 22:00:00 23 5 Oeste 21 Sur 0 -- -- 38
2018-09-22 21:00:00 24.4 8 Sur 23 Sur 0 -- -- 34
2018-09-22 20:00:00 25.4 10 Sur 22 Este 0 -- -- 35
2018-09-22 19:00:00 28.5 10 Sudoeste 21 Sudoeste 0 -- -- 31
2018-09-22 18:00:00 29.5 10 Sur 22 Sur 0 -- -- 32
2018-09-22 17:00:00 29.6 9 Sur 32 Sur 0 -- -- 33
2018-09-22 16:00:00 30.3 6 Sur 30 Sur 0 -- -- 32
2018-09-22 15:00:00 30.2 8 Sudoeste 23 Oeste 0 -- -- 38
2018-09-22 14:00:00 28.8 6 Sur 19 Sudoeste 0 -- -- 42
2018-09-22 13:00:00 27.7 6 Sudoeste 16 Sudoeste 0 -- -- 43
2018-09-22 12:00:00 25.5 8 Sudoeste 15 Sudoeste 0 -- -- 49
2018-09-22 11:00:00 24.2 4 Sudoeste 9 Oeste 0 -- -- 50
2018-09-22 10:00:00 21.8 2 Sudeste 4 Este 0 -- -- 50
2018-09-22 09:00:00 20.5 2 Sudeste 5 Este 0 -- -- 50
2018-09-22 08:00:00 20.5 0 Calma 4 Sudeste 0 -- -- 50
2018-09-22 07:00:00 21.2 2 Sudoeste 9 Nordeste 0 -- -- 46
2018-09-22 06:00:00 21.2 0 Calma 8 Nordeste 0 -- -- 49
2018-09-22 05:00:00 21 4 Nordeste 12 Nordeste 0 -- -- 63
2018-09-22 04:00:00 19.7 7 Nordeste 12 Nordeste 0 -- -- 70
2018-09-22 03:00:00 20.4 3 Nordeste 8 Nordeste 0 -- -- 67
2018-09-22 02:00:00 20.8 0 Calma 9 Norte 0 -- -- 62
2018-09-22 01:00:00 21.1 6 Nordeste 10 Nordeste 0 -- -- 69
2018-09-22 00:00:00 20.1 0 Calma 2 Este 0 -- -- 84
2018-09-21 23:00:00 20.6 2 Norte 6 Nordeste 0 -- -- 74
2018-09-21 22:00:00 21.6 0 Calma 8 Nordeste 0 -- -- 72
2018-09-21 21:00:00 22.3 5 Norte 10 Norte 0 -- -- 73
2018-09-21 20:00:00 24 0 Calma 12 Sur 0 -- -- 69
2018-09-21 19:00:00 26.6 6 Sur 18 Sudoeste 0 -- -- 62
2018-09-21 18:00:00 27.1 9 Sudoeste 19 Sudoeste 0 -- -- 60
2018-09-21 17:00:00 27.2 11 Sudoeste 23 Sudoeste 0 -- -- 58
2018-09-21 16:00:00 27.3 15 Sudoeste 26 Sudoeste 0 -- -- 59
2018-09-21 15:00:00 27.5 13 Sudoeste 23 Sudoeste 0 -- -- 60
2018-09-21 14:00:00 26.7 10 Sudoeste 22 Sudoeste 0 -- -- 62
2018-09-21 13:00:00 24.9 9 Sudoeste 19 Sudoeste 0 -- -- 67
2018-09-21 12:00:00 23.1 8 Sudoeste 14 Sudoeste 0 -- -- 71
2018-09-21 11:00:00 22.3 4 Sudoeste 8 Sudoeste 0 -- -- 67
2018-09-21 10:00:00 20.1 3 Sur 4 Nordeste 0 -- -- 74
2018-09-21 09:00:00 18.9 2 Este 10 Nordeste 0 -- -- 76
2018-09-21 08:00:00 17.7 9 Nordeste 13 Nordeste 0 -- -- 80
2018-09-21 07:00:00 18.7 0 Calma 7 Nordeste 0 -- -- 73
2018-09-21 06:00:00 19.5 0 Calma 9 Nordeste 0 -- -- 68
2018-09-21 05:00:00 18.8 5 Nordeste 10 Norte 0 -- -- 79
2018-09-21 04:00:00 18.8 6 Nordeste 10 Nordeste 0 -- -- 81
2018-09-21 03:00:00 18.5 4 Nordeste 9 Nordeste 0 -- -- 84
2018-09-21 02:00:00 19.1 0 Calma 4 Este 0 -- -- 79
2018-09-21 01:00:00 19.8 2 Sudeste 8 Este 0 -- -- 76
2018-09-21 00:00:00 20.1 4 Nordeste 12 Este 0 -- -- 78
2018-09-20 23:00:00 19.4 0 Calma 6 Sur 0 -- -- 86
2018-09-20 22:00:00 19.6 0 Calma 10 Norte 0 -- -- 88
2018-09-20 21:00:00 20.7 2 Este 8 Sur 0 -- -- 84
2018-09-20 20:00:00 22.4 3 Sudoeste 13 Sudoeste 0 -- -- 77
2018-09-20 19:00:00 25.6 9 Sudoeste 16 Sudoeste 0 -- -- 66
2018-09-20 18:00:00 26.3 9 Sudoeste 17 Sudoeste 0 -- -- 64
2018-09-20 17:00:00 26.6 4 Nordeste 22 Sudoeste 0 -- -- 63
2018-09-20 16:00:00 24.9 8 Sudoeste 22 Sudoeste 0 -- -- 68
2018-09-20 15:00:00 25.9 7 Sudoeste 19 Sudoeste 0 -- -- 65
2018-09-20 14:00:00 26.9 8 Sudoeste 23 Sudoeste 0 -- -- 62
2018-09-20 13:00:00 24.9 10 Sudoeste 18 Sudoeste 0 -- -- 69
2018-09-20 12:00:00 23.3 6 Sudoeste 15 Sudoeste 0 -- -- 75
2018-09-20 11:00:00 22.1 9 Sudoeste 15 Sudoeste 0 -- -- 80
2018-09-20 10:00:00 20.7 3 Sudoeste 10 Sudoeste 0 -- -- 84
2018-09-20 09:00:00 19.3 0 Calma 9 Este 0 -- -- 85
2018-09-20 08:00:00 18.9 0 Calma 8 Oeste 0 -- -- 86
2018-09-20 07:00:00 19.5 3 Noroeste 14 Nordeste 0 -- -- 82
2018-09-20 06:00:00 19.2 3 Este 7 Este 0 -- -- 82
2018-09-20 05:00:00 18.8 0 Calma 7 Sudoeste 0 -- -- 81
2018-09-20 04:00:00 19 3 Oeste 6 Oeste 0 -- -- 79
2018-09-20 03:00:00 19.5 0 Calma 11 Este 0 -- -- 78
2018-09-20 02:00:00 19.4 2 Sudoeste 6 Oeste 0 -- -- 79
2018-09-20 01:00:00 19.8 2 Norte 8 Sur 0 -- -- 79
2018-09-20 00:00:00 19 2 Oeste 9 Nordeste 0 -- -- 93